Cape Cod — WBK3243 — position and weather

sailwx.info

Track history (hours):
 
Tides and Currents Weather Stations Pressure Air Temp Water Temp Dewpoint Dewpoint Depression Visibility Wind Speed Wind Dir Waves Ship Positions

Cape Cod

Owner: MORAN TOWING CORPORATION, New Canaan, CT. More information available from US FCC via Universal Licensing System and Coast Guard Vessel Documentation Center.

Last reported at 2017-Aug-21 10:00 UTC. Time now 2017-Aug-21 10:22 UTC.
Position N 39°54' W 075°08'.

Length 33 m; draft 4.8 m.

Type: Tug. MMSI: 366939770.

Date/timePositionNaut miles runAvg speedWind from/ knotsBaromVisibWave heightAir tempDewpointWater temp
2017-Aug-21 10:00N 39°54' W 075°08'2 3.1
2017-Aug-21 09:30N 39°55' W 075°08'1 1.5
2017-Aug-21 09:00N 39°56' W 075°08'1 1.4
2017-Aug-21 08:30N 39°55' W 075°08'2 3.0
2017-Aug-21 08:00N 39°54' W 075°08'2 3.3
2017-Aug-21 07:30N 39°55' W 075°08'1 1.3
2017-Aug-21 07:00N 39°56' W 075°08'1 1.2
2017-Aug-21 06:30N 39°57' W 075°08'2 3.9
2017-Aug-21 06:00N 39°58' W 075°07'0 0.1
2017-Aug-21 05:30N 39°58' W 075°07'0 0.0
2017-Aug-21 05:00N 39°58' W 075°07'0 0.0
2017-Aug-21 04:30N 39°58' W 075°07'0 0.0
2017-Aug-21 04:00N 39°58' W 075°07'0 0.0
2017-Aug-21 03:30N 39°58' W 075°07'0 0.0
2017-Aug-21 03:00N 39°58' W 075°07'0 0.0
2017-Aug-21 02:30N 39°58' W 075°07'0 0.0
2017-Aug-21 02:00N 39°58' W 075°07'0 0.0
2017-Aug-21 01:30N 39°58' W 075°07'3 5.7
2017-Aug-21 01:01N 39°55' W 075°08'3 6.0
2017-Aug-21 00:30N 39°53' W 075°11'0 0.0
2017-Aug-21 00:00N 39°53' W 075°11'0 0.0
2017-Aug-20 23:30N 39°53' W 075°11'0 0.0
2017-Aug-20 23:00N 39°53' W 075°11'0 0.0
2017-Aug-20 22:30N 39°53' W 075°11'0 0.0
2017-Aug-20 22:00N 39°53' W 075°11'0 0.0
2017-Aug-20 21:30N 39°53' W 075°11'0 0.0
2017-Aug-20 21:01N 39°53' W 075°11'0 0.0
2017-Aug-20 20:30N 39°53' W 075°11'0 0.0
2017-Aug-20 20:01N 39°53' W 075°11'0 0.0
2017-Aug-20 19:30N 39°53' W 075°11'0 0.0
2017-Aug-20 19:00N 39°53' W 075°11'0 0.0
2017-Aug-20 18:29N 39°53' W 075°11'0 0.0
2017-Aug-20 18:00N 39°53' W 075°11'0 0.0
2017-Aug-20 17:30N 39°53' W 075°11'0 0.0
2017-Aug-20 17:00N 39°53' W 075°11'0 0.0
2017-Aug-20 16:30N 39°53' W 075°11'0 0.0
2017-Aug-20 16:00N 39°53' W 075°11'0 0.0
2017-Aug-20 15:30N 39°53' W 075°11'0 0.0
2017-Aug-20 14:56N 39°53' W 075°11'0 0.0
2017-Aug-20 14:30N 39°53' W 075°11'0 0.0
2017-Aug-20 14:00N 39°53' W 075°11'1 1.7
2017-Aug-20 13:30N 39°54' W 075°12'0 0.6
2017-Aug-20 13:00N 39°53' W 075°12'1 1.7
2017-Aug-20 12:30N 39°53' W 075°11'0 0.0
2017-Aug-20 12:00N 39°53' W 075°11'0 0.0
2017-Aug-20 11:30N 39°53' W 075°11'0 0.0
2017-Aug-20 11:00N 39°53' W 075°11'0 0.0
2017-Aug-20 10:30N 39°53' W 075°11'0 0.0
2017-Aug-20 09:59N 39°53' W 075°11'0 0.0
2017-Aug-20 09:30N 39°53' W 075°11'0 0.0
2017-Aug-20 08:56N 39°53' W 075°11'0 0.0
2017-Aug-20 08:25N 39°53' W 075°11'0 0.0
2017-Aug-20 08:00N 39°53' W 075°11'0 0.0
2017-Aug-20 07:28N 39°53' W 075°11'0 0.0
2017-Aug-20 07:00N 39°53' W 075°11'0 0.0
2017-Aug-20 06:30N 39°53' W 075°11'0 0.0
2017-Aug-20 06:00N 39°53' W 075°11'0 0.0
2017-Aug-20 05:29N 39°53' W 075°11'0 0.0
2017-Aug-20 05:00N 39°53' W 075°11'0 0.0
2017-Aug-20 04:29N 39°53' W 075°11'0 0.0
2017-Aug-20 04:00N 39°53' W 075°11'0 0.0
2017-Aug-20 03:30N 39°53' W 075°11'0 0.0
2017-Aug-20 02:56N 39°53' W 075°11'1 3.1
2017-Aug-20 02:30N 39°53' W 075°09'4 8.1
2017-Aug-20 02:00N 39°57' W 075°08'2 3.2
2017-Aug-20 01:30N 39°58' W 075°07'0 0.3
2017-Aug-20 01:00N 39°58' W 075°07'1 1.7
2017-Aug-20 00:30N 39°58' W 075°08'4 7.6
2017-Aug-20 00:00N 39°54' W 075°08'4 8.8
2017-Aug-19 23:30N 39°52' W 075°13'5 9.3
2017-Aug-19 23:00N 39°51' W 075°19'4 8.8
2017-Aug-19 22:30N 39°49' W 075°24'4 8.6
2017-Aug-19 22:00N 39°46' W 075°28'4 8.3
2017-Aug-19 21:30N 39°42' W 075°31'4 7.8
2017-Aug-19 21:00N 39°39' W 075°33'3 6.6
2017-Aug-19 20:30N 39°36' W 075°34'4 7.3
2017-Aug-19 20:00N 39°32' W 075°33'4 7.7
2017-Aug-19 19:30N 39°28' W 075°34'4 7.4
2017-Aug-19 19:00N 39°25' W 075°31'3 6.4
2017-Aug-19 18:30N 39°23' W 075°28'14 2.8
2017-Aug-19 13:33N 39°12' W 075°17'112.8
2017-Aug-19 13:29N 39°13' W 075°18'612.3
2017-Aug-19 13:00N 39°18' W 075°23'611.7
2017-Aug-19 12:30N 39°22' W 075°28'611.6
2017-Aug-19 12:00N 39°26' W 075°33'510.7
2017-Aug-19 11:30N 39°32' W 075°33'611.3
2017-Aug-19 11:00N 39°37' W 075°35'611.0
2017-Aug-19 10:30N 39°42' W 075°31'713.7
2017-Aug-19 10:00N 39°48' W 075°26'713.4
2017-Aug-19 09:30N 39°51' W 075°19'612.7
2017-Aug-19 09:00N 39°53' W 075°11'0 0.4
2017-Aug-19 08:30N 39°53' W 075°11'0 0.0
2017-Aug-19 08:00N 39°53' W 075°11'0 0.0
2017-Aug-19 07:29N 39°53' W 075°11'0 0.0
2017-Aug-19 07:00N 39°53' W 075°11'0 0.0
2017-Aug-19 06:27N 39°53' W 075°11'1 1.5
2017-Aug-19 06:00N 39°53' W 075°10'5 9.5
2017-Aug-19 05:30N 39°57' W 075°08'2 4.9
2017-Aug-19 05:00N 39°59' W 075°05'0 0.7
2017-Aug-19 04:30N 39°59' W 075°06'2 4.6
2017-Aug-19 04:01N 39°57' W 075°08'2 3.8
2017-Aug-19 03:30N 39°58' W 075°06'1 1.6
2017-Aug-19 03:00N 39°59' W 075°05'0 0.0
2017-Aug-19 02:31N 39°59' W 075°05'0 0.0
2017-Aug-19 02:00N 39°59' W 075°05'0 0.0
2017-Aug-19 01:30N 39°59' W 075°05'0 0.0
2017-Aug-19 01:01N 39°59' W 075°05'0 0.0
2017-Aug-19 00:31N 39°59' W 075°05'0 0.0
2017-Aug-19 00:00N 39°59' W 075°05'0 0.0
2017-Aug-18 23:30N 39°59' W 075°05'4 7.3
2017-Aug-18 23:00N 39°56' W 075°08'2 4.5
2017-Aug-18 22:30N 39°54' W 075°08'0 0.4
2017-Aug-18 22:00N 39°54' W 075°08'2 3.4
2017-Aug-18 21:30N 39°53' W 075°10'0 0.9
2017-Aug-18 21:00N 39°53' W 075°11'0 0.0
2017-Aug-18 20:30N 39°53' W 075°11'0 0.0
2017-Aug-18 20:00N 39°53' W 075°11'0 0.0
2017-Aug-18 19:30N 39°53' W 075°11'0 0.0
2017-Aug-18 19:00N 39°53' W 075°11'0 0.0
2017-Aug-18 18:30N 39°53' W 075°11'1 2.2
2017-Aug-18 18:00N 39°53' W 075°12'4 8.6
2017-Aug-18 17:30N 39°51' W 075°17'510.0
2017-Aug-18 17:00N 39°49' W 075°23'510.3
2017-Aug-18 16:30N 39°46' W 075°28'611.2
2017-Aug-18 16:00N 39°41' W 075°31'510.1
2017-Aug-18 15:30N 39°37' W 075°34'2 3.2
2017-Aug-18 15:00N 39°35' W 075°36'0 0.0
2017-Aug-18 14:30N 39°35' W 075°36'1 1.4
2017-Aug-18 13:30N 39°34' W 075°34'1 2.9
2017-Aug-18 13:00N 39°35' W 075°36'0 0.0
2017-Aug-18 12:30N 39°35' W 075°36'0 0.0
2017-Aug-18 12:00N 39°35' W 075°36'0 0.0
2017-Aug-18 11:30N 39°35' W 075°36'1 2.5
2017-Aug-18 11:00N 39°35' W 075°34'3 7.0
2017-Aug-18 10:30N 39°38' W 075°34'5 9.1
2017-Aug-18 10:00N 39°42' W 075°31'2 3.1
2017-Aug-18 09:31N 39°43' W 075°32'0 0.8
2017-Aug-18 09:00N 39°43' W 075°31'1 1.7
2017-Aug-18 08:30N 39°43' W 075°30'0 0.0
2017-Aug-18 08:00N 39°43' W 075°30'0 0.0
2017-Aug-18 07:30N 39°43' W 075°30'0 0.0
2017-Aug-18 07:01N 39°43' W 075°30'0 0.0
2017-Aug-18 06:30N 39°43' W 075°30'0 0.0
2017-Aug-18 06:00N 39°43' W 075°30'0 0.0
2017-Aug-18 05:31N 39°43' W 075°30'0 0.0
2017-Aug-18 05:00N 39°43' W 075°30'0 0.0
2017-Aug-18 04:30N 39°43' W 075°30'0 0.0
2017-Aug-18 04:00N 39°43' W 075°30'0 0.1
2017-Aug-18 03:30N 39°43' W 075°30'0 0.1
2017-Aug-18 03:01N 39°43' W 075°30'0 0.1
2017-Aug-18 02:30N 39°43' W 075°30'0 0.0
2017-Aug-18 02:00N 39°43' W 075°30'0 0.0
2017-Aug-18 01:30N 39°43' W 075°30'0 0.0
2017-Aug-18 01:00N 39°43' W 075°30'0 0.0
2017-Aug-18 00:30N 39°43' W 075°30'0 0.0
2017-Aug-18 00:00N 39°43' W 075°30'0 0.0
2017-Aug-17 23:30N 39°43' W 075°30'0 0.0
2017-Aug-17 23:00N 39°43' W 075°30'0 0.0
2017-Aug-17 22:30N 39°43' W 075°30'0 0.0
2017-Aug-17 22:00N 39°43' W 075°30'0 0.0
2017-Aug-17 21:30N 39°43' W 075°30'0 0.0
2017-Aug-17 21:00N 39°43' W 075°30'1 1.6
2017-Aug-17 20:30N 39°43' W 075°31'0 0.3
2017-Aug-17 20:00N 39°43' W 075°31'0 0.2
2017-Aug-17 19:30N 39°43' W 075°31'3 5.9
2017-Aug-17 19:00N 39°45' W 075°29'611.3
2017-Aug-17 18:30N 39°49' W 075°23'3 5.8
2017-Aug-17 18:00N 39°51' W 075°20'1 2.9
2017-Aug-17 17:30N 39°51' W 075°19'5 9.3
2017-Aug-17 17:00N 39°52' W 075°13'2 3.8
2017-Aug-17 16:30N 39°53' W 075°11'0 0.0
2017-Aug-17 16:00N 39°53' W 075°11'0 0.0
2017-Aug-17 15:30N 39°53' W 075°11'0 0.0
2017-Aug-17 15:00N 39°53' W 075°11'0 0.0
2017-Aug-17 14:30N 39°53' W 075°11'0 0.0
2017-Aug-17 14:00N 39°53' W 075°11'0 0.0
2017-Aug-17 13:30N 39°53' W 075°11'0 0.0
2017-Aug-17 13:00N 39°53' W 075°11'0 0.0
2017-Aug-17 12:30N 39°53' W 075°11'0 0.0
2017-Aug-17 12:00N 39°53' W 075°11'0 0.0
2017-Aug-17 11:30N 39°53' W 075°11'5 9.0
2017-Aug-17 11:00N 39°51' W 075°16'4 7.1
2017-Aug-17 10:30N 39°51' W 075°20'1 1.4
2017-Aug-17 10:00N 39°51' W 075°21'1 1.5
2017-Aug-17 09:30N 39°51' W 075°20'0 0.0
2017-Aug-17 08:49N 39°51' W 075°20'0 0.0
2017-Aug-17 08:30N 39°51' W 075°20'0 0.0
2017-Aug-17 08:00N 39°51' W 075°20'1 2.8
2017-Aug-17 07:30N 39°51' W 075°19'611.0
2017-Aug-17 07:00N 39°53' W 075°12'4 8.5
2017-Aug-17 06:30N 39°56' W 075°08'510.4
2017-Aug-17 06:00N 39°60' W 075°04'611.1
2017-Aug-17 05:30N 40°03' W 074°58'1 0.2
2017-Aug-17 00:29N 40°04' W 074°57'510.7
2017-Aug-17 00:00N 40°01' W 075°02'611.1
2017-Aug-16 23:30N 39°58' W 075°08'2 4.8
2017-Aug-16 23:00N 39°55' W 075°08'0 0.1
2017-Aug-16 22:30N 39°55' W 075°08'2 4.1
2017-Aug-16 22:00N 39°53' W 075°08'2 3.4
2017-Aug-16 21:30N 39°53' W 075°11'0 0.0
2017-Aug-16 21:00N 39°53' W 075°11'0 0.0
2017-Aug-16 20:30N 39°53' W 075°11'0 0.0
2017-Aug-16 20:00N 39°53' W 075°11'0 0.0
2017-Aug-16 19:30N 39°53' W 075°11'0 0.0
2017-Aug-16 18:59N 39°53' W 075°11'0 0.0
2017-Aug-16 18:30N 39°53' W 075°11'0 0.0
2017-Aug-16 18:00N 39°53' W 075°11'0 0.0
2017-Aug-16 17:30N 39°53' W 075°11'0 0.0
2017-Aug-16 17:00N 39°53' W 075°11'0 0.0
2017-Aug-16 16:30N 39°53' W 075°11'0 0.0
2017-Aug-16 16:00N 39°53' W 075°11'0 0.0
2017-Aug-16 15:30N 39°53' W 075°11'0 0.0
2017-Aug-16 15:00N 39°53' W 075°11'0 0.0
2017-Aug-16 14:30N 39°53' W 075°11'0 0.0
2017-Aug-16 14:00N 39°53' W 075°11'1 1.8
2017-Aug-16 13:30N 39°53' W 075°12'1 1.5
2017-Aug-16 13:00N 39°54' W 075°11'0 0.2
2017-Aug-16 12:30N 39°53' W 075°11'0 0.2
2017-Aug-16 12:00N 39°54' W 075°11'0 0.3
2017-Aug-16 11:30N 39°54' W 075°11'0 0.7
2017-Aug-16 11:00N 39°53' W 075°12'1 1.7
2017-Aug-16 10:30N 39°53' W 075°11'510.7
2017-Aug-16 10:00N 39°51' W 075°17'611.8
2017-Aug-16 09:30N 39°49' W 075°24'1 1.5
2017-Aug-16 09:00N 39°48' W 075°25'1 1.2
2017-Aug-16 08:30N 39°48' W 075°26'0 0.0
2017-Aug-16 08:00N 39°48' W 075°26'0 0.0
2017-Aug-16 07:30N 39°48' W 075°26'0 0.0
2017-Aug-16 07:00N 39°48' W 075°26'0 0.0
2017-Aug-16 06:30N 39°48' W 075°26'0 0.0
2017-Aug-16 06:00N 39°48' W 075°26'0 0.0
2017-Aug-16 05:30N 39°48' W 075°26'0 0.0
2017-Aug-16 05:00N 39°48' W 075°26'0 0.0
2017-Aug-16 04:30N 39°48' W 075°26'0 0.0
2017-Aug-16 04:00N 39°48' W 075°26'2 3.0
2017-Aug-16 03:29N 39°49' W 075°24'511.0
2017-Aug-16 02:59N 39°51' W 075°18'5 9.9
2017-Aug-16 02:30N 39°53' W 075°12'1 2.0
2017-Aug-16 02:01N 39°54' W 075°12'1 1.8
2017-Aug-16 01:30N 39°53' W 075°12'1 1.8
2017-Aug-16 01:00N 39°53' W 075°11'0 0.0
2017-Aug-16 00:30N 39°53' W 075°11'0 0.0
2017-Aug-16 00:01N 39°53' W 075°11'0 0.0
2017-Aug-15 23:30N 39°53' W 075°11'0 0.0
2017-Aug-15 23:00N 39°53' W 075°11'0 0.0
2017-Aug-15 22:30N 39°53' W 075°11'0 0.0
2017-Aug-15 22:01N 39°53' W 075°11'0 0.0
2017-Aug-15 21:30N 39°53' W 075°11'0 0.0
2017-Aug-15 21:00N 39°53' W 075°11'0 0.0
2017-Aug-15 20:29N 39°53' W 075°11'0 0.0
2017-Aug-15 19:59N 39°53' W 075°11'0 0.0
2017-Aug-15 19:28N 39°53' W 075°11'0 0.0
2017-Aug-15 19:00N 39°53' W 075°11'0 0.0
2017-Aug-15 18:30N 39°53' W 075°11'0 0.0
2017-Aug-15 18:00N 39°53' W 075°11'0 0.0
2017-Aug-15 17:30N 39°53' W 075°11'0 0.0
2017-Aug-15 17:00N 39°53' W 075°11'0 0.0
2017-Aug-15 16:30N 39°53' W 075°11'0 0.0
2017-Aug-15 15:58N 39°53' W 075°11'0 0.0
2017-Aug-15 15:30N 39°53' W 075°11'0 0.0
2017-Aug-15 14:58N 39°53' W 075°11'0 0.0
2017-Aug-15 14:30N 39°53' W 075°11'0 0.0
2017-Aug-15 14:00N 39°53' W 075°11'0 0.0
2017-Aug-15 13:30N 39°53' W 075°11'0 0.0
2017-Aug-15 13:00N 39°53' W 075°11'0 0.0
2017-Aug-15 12:30N 39°53' W 075°11'0 0.0
2017-Aug-15 12:00N 39°53' W 075°11'0 0.0
2017-Aug-15 11:30N 39°53' W 075°11'0 0.4
2017-Aug-15 11:01N 39°53' W 075°11'510.3
2017-Aug-15 10:30N 39°51' W 075°17'3 5.4
2017-Aug-15 10:00N 39°51' W 075°20'0 0.0
2017-Aug-15 09:30N 39°51' W 075°20'0 0.0
2017-Aug-15 09:00N 39°51' W 075°20'0 0.0
2017-Aug-15 08:30N 39°51' W 075°20'0 0.1
2017-Aug-15 08:00N 39°51' W 075°20'3 6.6
2017-Aug-15 07:31N 39°51' W 075°16'5 9.4
2017-Aug-15 07:00N 39°53' W 075°11'0 0.0
2017-Aug-15 06:30N 39°53' W 075°11'0 0.0
2017-Aug-15 05:57N 39°53' W 075°11'0 0.0
2017-Aug-15 05:30N 39°53' W 075°11'0 0.0
2017-Aug-15 04:59N 39°53' W 075°11'0 0.0
2017-Aug-15 04:30N 39°53' W 075°11'0 0.0
2017-Aug-15 03:57N 39°53' W 075°11'0 0.0
2017-Aug-15 03:30N 39°53' W 075°11'0 0.0
2017-Aug-15 03:00N 39°53' W 075°11'0 0.0
2017-Aug-15 02:30N 39°53' W 075°11'0 0.0
2017-Aug-15 02:00N 39°53' W 075°11'0 0.0
2017-Aug-15 01:30N 39°53' W 075°11'0 0.0
2017-Aug-15 01:00N 39°53' W 075°11'0 0.0
2017-Aug-15 00:31N 39°53' W 075°11'0 0.0
2017-Aug-15 00:00N 39°53' W 075°11'0 0.0
2017-Aug-14 23:30N 39°53' W 075°11'0 0.0
2017-Aug-14 23:00N 39°53' W 075°11'0 0.0
2017-Aug-14 22:30N 39°53' W 075°11'3 5.9
2017-Aug-14 22:00N 39°51' W 075°14'510.2
2017-Aug-14 21:30N 39°51' W 075°20'0 0.3
2017-Aug-14 20:58N 39°51' W 075°20'3 5.4
2017-Aug-14 20:30N 39°49' W 075°23'2 4.8
2017-Aug-14 20:00N 39°51' W 075°21'4 7.9
2017-Aug-14 19:30N 39°51' W 075°15'4 8.3
2017-Aug-14 19:00N 39°53' W 075°11'0 0.1
2017-Aug-14 18:30N 39°53' W 075°11'0 0.0
2017-Aug-14 17:58N 39°53' W 075°11'0 0.0
2017-Aug-14 17:30N 39°53' W 075°11'0 0.0
2017-Aug-14 16:55N 39°53' W 075°11'0 0.0
2017-Aug-14 16:26N 39°53' W 075°11'0 0.0
2017-Aug-14 16:00N 39°53' W 075°11'0 0.0
2017-Aug-14 15:30N 39°53' W 075°11'0 0.0
2017-Aug-14 15:00N 39°53' W 075°11'0 0.0
2017-Aug-14 14:30N 39°53' W 075°11'1 1.7
2017-Aug-14 14:00N 39°54' W 075°12'1 1.3
2017-Aug-14 13:30N 39°54' W 075°12'0 0.2
2017-Aug-14 12:57N 39°54' W 075°12'0 1.1
2017-Aug-14 12:31N 39°53' W 075°12'0 0.1
2017-Aug-14 12:00N 39°53' W 075°12'1 1.5
2017-Aug-14 11:30N 39°53' W 075°12'1 2.3
2017-Aug-14 11:00N 39°53' W 075°11'0 0.0
2017-Aug-14 10:30N 39°53' W 075°11'0 0.0
2017-Aug-14 10:01N 39°53' W 075°11'0 0.0
2017-Aug-14 09:30N 39°53' W 075°11'0 0.0
2017-Aug-14 09:00N 39°53' W 075°11'0 0.0
2017-Aug-14 08:31N 39°53' W 075°11'0 0.0
2017-Aug-14 08:00N 39°53' W 075°11'2 3.9
2017-Aug-14 07:30N 39°54' W 075°08'0 0.3
2017-Aug-14 07:00N 39°54' W 075°08'2 4.3
2017-Aug-14 06:30N 39°53' W 075°11'0 0.5
2017-Aug-14 06:00N 39°53' W 075°11'0 0.0
2017-Aug-14 05:30N 39°53' W 075°11'0 0.0
2017-Aug-14 05:00N 39°53' W 075°11'0 0.0
2017-Aug-14 04:27N 39°53' W 075°11'0 0.0
2017-Aug-14 04:00N 39°53' W 075°11'0 0.0
2017-Aug-14 03:28N 39°53' W 075°11'0 0.0
2017-Aug-14 03:00N 39°53' W 075°11'0 0.0
2017-Aug-14 02:29N 39°53' W 075°11'0 0.0
2017-Aug-14 02:00N 39°53' W 075°11'0 0.0
2017-Aug-14 01:30N 39°53' W 075°11'0 0.0
2017-Aug-14 01:00N 39°53' W 075°11'0 0.0
2017-Aug-14 00:30N 39°53' W 075°11'0 0.0
2017-Aug-14 00:00N 39°53' W 075°11'0 0.0
2017-Aug-13 23:30N 39°53' W 075°11'0 0.0
2017-Aug-13 23:00N 39°53' W 075°11'0 0.0
2017-Aug-13 22:30N 39°53' W 075°11'0 0.0
2017-Aug-13 22:00N 39°53' W 075°11'0 0.0
2017-Aug-13 21:30N 39°53' W 075°11'0 0.0
2017-Aug-13 21:00N 39°53' W 075°11'0 0.0
2017-Aug-13 20:30N 39°53' W 075°11'0 0.0
2017-Aug-13 20:00N 39°53' W 075°11'0 0.0
2017-Aug-13 19:30N 39°53' W 075°11'0 0.0
2017-Aug-13 19:00N 39°53' W 075°11'0 0.0
2017-Aug-13 18:30N 39°53' W 075°11'0 0.0
2017-Aug-13 18:00N 39°53' W 075°11'0 0.0
2017-Aug-13 17:29N 39°53' W 075°11'0 0.0
2017-Aug-13 17:00N 39°53' W 075°11'0 0.0
2017-Aug-13 16:30N 39°53' W 075°11'0 0.0
2017-Aug-13 16:00N 39°53' W 075°11'0 0.0
2017-Aug-13 15:30N 39°53' W 075°11'0 0.0
2017-Aug-13 15:00N 39°53' W 075°11'0 0.0
2017-Aug-13 14:30N 39°53' W 075°11'0 0.0
2017-Aug-13 13:59N 39°53' W 075°11'0 0.0
2017-Aug-13 13:30N 39°53' W 075°11'0 0.0
2017-Aug-13 13:00N 39°53' W 075°11'0 0.0
2017-Aug-13 12:30N 39°53' W 075°11'0 0.0
2017-Aug-13 12:00N 39°53' W 075°11'0 0.0
2017-Aug-13 11:30N 39°53' W 075°11'0 0.0
2017-Aug-13 11:00N 39°53' W 075°11'0 0.0
2017-Aug-13 10:30N 39°53' W 075°11'1 2.6
2017-Aug-13 10:00N 39°53' W 075°12'611.3
2017-Aug-13 09:29N 39°51' W 075°19'611.6
2017-Aug-13 09:00N 39°48' W 075°26'713.8
2017-Aug-13 08:30N 39°42' W 075°31'611.9
2017-Aug-13 08:00N 39°37' W 075°35'713.7
2017-Aug-13 07:31N 39°30' W 075°33'713.2
2017-Aug-13 07:00N 39°24' W 075°30'714.7
2017-Aug-13 06:30N 39°19' W 075°24'714.6
2017-Aug-13 06:00N 39°13' W 075°18'6 2.3
2017-Aug-13 03:16N 39°08' W 075°13'2 8.3
2017-Aug-13 03:00N 39°09' W 075°15'4 8.6
2017-Aug-13 02:30N 39°13' W 075°18'5 9.5
2017-Aug-13 02:01N 39°17' W 075°22'510.2
2017-Aug-13 01:30N 39°21' W 075°26'510.8
2017-Aug-13 01:01N 39°25' W 075°31'510.2
2017-Aug-13 00:31N 39°29' W 075°34'511.0
2017-Aug-13 00:01N 39°35' W 075°33'5 9.7
2017-Aug-12 23:30N 39°39' W 075°33'510.7
2017-Aug-12 23:00N 39°44' W 075°30'5 9.8
2017-Aug-12 22:30N 39°48' W 075°25'6 8.9
2017-Aug-12 21:46N 39°51' W 075°18'2 8.4
2017-Aug-12 21:30N 39°51' W 075°15'4 8.1
2017-Aug-12 21:00N 39°53' W 075°10'3 6.1
2017-Aug-12 20:30N 39°55' W 075°08'3 6.2
2017-Aug-12 20:00N 39°58' W 075°07'0 0.4
2017-Aug-12 19:30N 39°58' W 075°07'0 0.1
2017-Aug-12 19:00N 39°58' W 075°07'0 0.0
2017-Aug-12 18:30N 39°58' W 075°07'0 0.0
2017-Aug-12 18:00N 39°58' W 075°07'0 0.0
2017-Aug-12 17:30N 39°58' W 075°07'1 1.2
2017-Aug-12 17:00N 39°58' W 075°07'4 7.1
2017-Aug-12 16:30N 39°54' W 075°08'3 7.0
2017-Aug-12 16:01N 39°53' W 075°12'3 5.9
2017-Aug-12 15:30N 39°51' W 075°15'1 0.6
2017-Aug-12 14:03N 39°52' W 075°14'0 0.2
2017-Aug-12 13:58N 39°52' W 075°14'4 8.1
2017-Aug-12 13:27N 39°51' W 075°19'4 8.6
2017-Aug-12 13:00N 39°49' W 075°24'1 1.1
2017-Aug-12 12:30N 39°49' W 075°24'0 0.0
2017-Aug-12 12:00N 39°49' W 075°24'0 0.0
2017-Aug-12 11:30N 39°49' W 075°24'0 0.1
2017-Aug-12 11:00N 39°49' W 075°24'0 0.0
2017-Aug-12 10:30N 39°49' W 075°24'0 0.0
2017-Aug-12 10:00N 39°49' W 075°24'2 3.3
2017-Aug-12 09:30N 39°50' W 075°23'2 4.5
2017-Aug-12 09:00N 39°51' W 075°20'0 0.0
2017-Aug-12 08:22N 39°51' W 075°20'2 4.1
2017-Aug-12 08:00N 39°51' W 075°18'4 7.4
2017-Aug-12 07:30N 39°52' W 075°14'3 6.8
2017-Aug-12 07:00N 39°53' W 075°10'2 3.2
2017-Aug-12 06:30N 39°54' W 075°08'0 0.5
2017-Aug-12 06:00N 39°54' W 075°08'0 0.9
2017-Aug-12 05:30N 39°54' W 075°08'2 3.9
2017-Aug-12 05:00N 39°53' W 075°11'0 0.0
2017-Aug-12 04:30N 39°53' W 075°11'0 0.0
2017-Aug-12 04:00N 39°53' W 075°11'0 0.0
2017-Aug-12 03:30N 39°53' W 075°11'0 0.0
2017-Aug-12 03:00N 39°53' W 075°11'0 0.0
2017-Aug-12 02:30N 39°53' W 075°11'0 0.0
2017-Aug-12 02:00N 39°53' W 075°11'0 0.0
2017-Aug-12 01:30N 39°53' W 075°11'0 0.0
2017-Aug-12 01:00N 39°53' W 075°11'0 0.0
2017-Aug-12 00:30N 39°53' W 075°11'0 0.0
2017-Aug-12 00:00N 39°53' W 075°11'0 0.0
2017-Aug-11 23:30N 39°53' W 075°11'0 0.0
2017-Aug-11 23:00N 39°53' W 075°11'0 0.1
2017-Aug-11 22:30N 39°53' W 075°11'3 5.7
2017-Aug-11 22:00N 39°55' W 075°08'0 0.1
2017-Aug-11 21:30N 39°55' W 075°08'3 6.1
2017-Aug-11 21:00N 39°58' W 075°07'0 0.1
2017-Aug-11 20:30N 39°58' W 075°07'1 1.5
2017-Aug-11 20:01N 39°58' W 075°07'4 7.3
2017-Aug-11 19:30N 39°54' W 075°08'5 9.6
2017-Aug-11 19:00N 39°52' W 075°13'610.9
2017-Aug-11 18:27N 39°51' W 075°21'511.3
2017-Aug-11 18:00N 39°48' W 075°26'611.0
2017-Aug-11 17:30N 39°43' W 075°30'611.2
2017-Aug-11 17:00N 39°38' W 075°34'510.4
2017-Aug-11 16:30N 39°33' W 075°32'611.2
2017-Aug-11 16:00N 39°28' W 075°34'610.9
2017-Aug-11 15:30N 39°23' W 075°29'16 4.8
2017-Aug-11 12:10N 39°11' W 075°16'213.5
2017-Aug-11 12:00N 39°13' W 075°18'714.8
2017-Aug-11 11:30N 39°19' W 075°23'815.5
2017-Aug-11 11:01N 39°24' W 075°30'714.0
2017-Aug-11 10:31N 39°31' W 075°33'714.3
2017-Aug-11 10:01N 39°38' W 075°34'  
Track history (hours):
 
Tides and Currents Weather Stations Pressure Air Temp Water Temp Dewpoint Dewpoint Depression Visibility Wind Speed Wind Dir Waves Ship Positions

Cape Cod

Owner: MORAN TOWING CORPORATION, New Canaan, CT. More information available from US FCC via Universal Licensing System and Coast Guard Vessel Documentation Center.

Last reported at 2017-Aug-21 10:00 UTC. Time now 2017-Aug-21 10:22 UTC.
Position N 39°54' W 075°08'.

Length 33 m; draft 4.8 m.

Type: Tug. MMSI: 366939770.

Date/timePositionNaut miles runAvg speedWind from/ knotsBaromVisibWave heightAir tempDewpointWater temp
2017-Aug-21 10:00N 39°54' W 075°08'2 3.1
2017-Aug-21 09:30N 39°55' W 075°08'1 1.5
2017-Aug-21 09:00N 39°56' W 075°08'1 1.4
2017-Aug-21 08:30N 39°55' W 075°08'2 3.0
2017-Aug-21 08:00N 39°54' W 075°08'2 3.3
2017-Aug-21 07:30N 39°55' W 075°08'1 1.3
2017-Aug-21 07:00N 39°56' W 075°08'1 1.2
2017-Aug-21 06:30N 39°57' W 075°08'2 3.9
2017-Aug-21 06:00N 39°58' W 075°07'0 0.1
2017-Aug-21 05:30N 39°58' W 075°07'0 0.0
2017-Aug-21 05:00N 39°58' W 075°07'0 0.0
2017-Aug-21 04:30N 39°58' W 075°07'0 0.0
2017-Aug-21 04:00N 39°58' W 075°07'0 0.0
2017-Aug-21 03:30N 39°58' W 075°07'0 0.0
2017-Aug-21 03:00N 39°58' W 075°07'0 0.0
2017-Aug-21 02:30N 39°58' W 075°07'0 0.0
2017-Aug-21 02:00N 39°58' W 075°07'0 0.0
2017-Aug-21 01:30N 39°58' W 075°07'3 5.7
2017-Aug-21 01:01N 39°55' W 075°08'3 6.0
2017-Aug-21 00:30N 39°53' W 075°11'0 0.0
2017-Aug-21 00:00N 39°53' W 075°11'0 0.0
2017-Aug-20 23:30N 39°53' W 075°11'0 0.0
2017-Aug-20 23:00N 39°53' W 075°11'0 0.0
2017-Aug-20 22:30N 39°53' W 075°11'0 0.0
2017-Aug-20 22:00N 39°53' W 075°11'0 0.0
2017-Aug-20 21:30N 39°53' W 075°11'0 0.0
2017-Aug-20 21:01N 39°53' W 075°11'0 0.0
2017-Aug-20 20:30N 39°53' W 075°11'0 0.0
2017-Aug-20 20:01N 39°53' W 075°11'0 0.0
2017-Aug-20 19:30N 39°53' W 075°11'0 0.0
2017-Aug-20 19:00N 39°53' W 075°11'0 0.0
2017-Aug-20 18:29N 39°53' W 075°11'0 0.0
2017-Aug-20 18:00N 39°53' W 075°11'0 0.0
2017-Aug-20 17:30N 39°53' W 075°11'0 0.0
2017-Aug-20 17:00N 39°53' W 075°11'0 0.0
2017-Aug-20 16:30N 39°53' W 075°11'0 0.0
2017-Aug-20 16:00N 39°53' W 075°11'0 0.0
2017-Aug-20 15:30N 39°53' W 075°11'0 0.0
2017-Aug-20 14:56N 39°53' W 075°11'0 0.0
2017-Aug-20 14:30N 39°53' W 075°11'0 0.0
2017-Aug-20 14:00N 39°53' W 075°11'1 1.7
2017-Aug-20 13:30N 39°54' W 075°12'0 0.6
2017-Aug-20 13:00N 39°53' W 075°12'1 1.7
2017-Aug-20 12:30N 39°53' W 075°11'0 0.0
2017-Aug-20 12:00N 39°53' W 075°11'0 0.0
2017-Aug-20 11:30N 39°53' W 075°11'0 0.0
2017-Aug-20 11:00N 39°53' W 075°11'0 0.0
2017-Aug-20 10:30N 39°53' W 075°11'0 0.0
2017-Aug-20 09:59N 39°53' W 075°11'0 0.0
2017-Aug-20 09:30N 39°53' W 075°11'0 0.0
2017-Aug-20 08:56N 39°53' W 075°11'0 0.0
2017-Aug-20 08:25N 39°53' W 075°11'0 0.0
2017-Aug-20 08:00N 39°53' W 075°11'0 0.0
2017-Aug-20 07:28N 39°53' W 075°11'0 0.0
2017-Aug-20 07:00N 39°53' W 075°11'0 0.0
2017-Aug-20 06:30N 39°53' W 075°11'0 0.0
2017-Aug-20 06:00N 39°53' W 075°11'0 0.0
2017-Aug-20 05:29N 39°53' W 075°11'0 0.0
2017-Aug-20 05:00N 39°53' W 075°11'0 0.0
2017-Aug-20 04:29N 39°53' W 075°11'0 0.0
2017-Aug-20 04:00N 39°53' W 075°11'0 0.0
2017-Aug-20 03:30N 39°53' W 075°11'0 0.0
2017-Aug-20 02:56N 39°53' W 075°11'1 3.1
2017-Aug-20 02:30N 39°53' W 075°09'4 8.1
2017-Aug-20 02:00N 39°57' W 075°08'2 3.2
2017-Aug-20 01:30N 39°58' W 075°07'0 0.3
2017-Aug-20 01:00N 39°58' W 075°07'1 1.7
2017-Aug-20 00:30N 39°58' W 075°08'4 7.6
2017-Aug-20 00:00N 39°54' W 075°08'4 8.8
2017-Aug-19 23:30N 39°52' W 075°13'5 9.3
2017-Aug-19 23:00N 39°51' W 075°19'4 8.8
2017-Aug-19 22:30N 39°49' W 075°24'4 8.6
2017-Aug-19 22:00N 39°46' W 075°28'4 8.3
2017-Aug-19 21:30N 39°42' W 075°31'4 7.8
2017-Aug-19 21:00N 39°39' W 075°33'3 6.6
2017-Aug-19 20:30N 39°36' W 075°34'4 7.3
2017-Aug-19 20:00N 39°32' W 075°33'4 7.7
2017-Aug-19 19:30N 39°28' W 075°34'4 7.4
2017-Aug-19 19:00N 39°25' W 075°31'3 6.4
2017-Aug-19 18:30N 39°23' W 075°28'14 2.8
2017-Aug-19 13:33N 39°12' W 075°17'112.8
2017-Aug-19 13:29N 39°13' W 075°18'612.3
2017-Aug-19 13:00N 39°18' W 075°23'611.7
2017-Aug-19 12:30N 39°22' W 075°28'611.6
2017-Aug-19 12:00N 39°26' W 075°33'510.7
2017-Aug-19 11:30N 39°32' W 075°33'611.3
2017-Aug-19 11:00N 39°37' W 075°35'611.0
2017-Aug-19 10:30N 39°42' W 075°31'713.7
2017-Aug-19 10:00N 39°48' W 075°26'713.4
2017-Aug-19 09:30N 39°51' W 075°19'612.7
2017-Aug-19 09:00N 39°53' W 075°11'0 0.4
2017-Aug-19 08:30N 39°53' W 075°11'0 0.0
2017-Aug-19 08:00N 39°53' W 075°11'0 0.0
2017-Aug-19 07:29N 39°53' W 075°11'0 0.0
2017-Aug-19 07:00N 39°53' W 075°11'0 0.0
2017-Aug-19 06:27N 39°53' W 075°11'1 1.5
2017-Aug-19 06:00N 39°53' W 075°10'5 9.5
2017-Aug-19 05:30N 39°57' W 075°08'2 4.9
2017-Aug-19 05:00N 39°59' W 075°05'0 0.7
2017-Aug-19 04:30N 39°59' W 075°06'2 4.6
2017-Aug-19 04:01N 39°57' W 075°08'2 3.8
2017-Aug-19 03:30N 39°58' W 075°06'1 1.6
2017-Aug-19 03:00N 39°59' W 075°05'0 0.0
2017-Aug-19 02:31N 39°59' W 075°05'0 0.0
2017-Aug-19 02:00N 39°59' W 075°05'0 0.0
2017-Aug-19 01:30N 39°59' W 075°05'0 0.0
2017-Aug-19 01:01N 39°59' W 075°05'0 0.0
2017-Aug-19 00:31N 39°59' W 075°05'0 0.0
2017-Aug-19 00:00N 39°59' W 075°05'0 0.0
2017-Aug-18 23:30N 39°59' W 075°05'4 7.3
2017-Aug-18 23:00N 39°56' W 075°08'2 4.5
2017-Aug-18 22:30N 39°54' W 075°08'0 0.4
2017-Aug-18 22:00N 39°54' W 075°08'2 3.4
2017-Aug-18 21:30N 39°53' W 075°10'0 0.9
2017-Aug-18 21:00N 39°53' W 075°11'0 0.0
2017-Aug-18 20:30N 39°53' W 075°11'0 0.0
2017-Aug-18 20:00N 39°53' W 075°11'0 0.0
2017-Aug-18 19:30N 39°53' W 075°11'0 0.0
2017-Aug-18 19:00N 39°53' W 075°11'0 0.0
2017-Aug-18 18:30N 39°53' W 075°11'1 2.2
2017-Aug-18 18:00N 39°53' W 075°12'4 8.6
2017-Aug-18 17:30N 39°51' W 075°17'510.0
2017-Aug-18 17:00N 39°49' W 075°23'510.3
2017-Aug-18 16:30N 39°46' W 075°28'611.2
2017-Aug-18 16:00N 39°41' W 075°31'510.1
2017-Aug-18 15:30N 39°37' W 075°34'2 3.2
2017-Aug-18 15:00N 39°35' W 075°36'0 0.0
2017-Aug-18 14:30N 39°35' W 075°36'1 1.4
2017-Aug-18 13:30N 39°34' W 075°34'1 2.9
2017-Aug-18 13:00N 39°35' W 075°36'0 0.0
2017-Aug-18 12:30N 39°35' W 075°36'0 0.0
2017-Aug-18 12:00N 39°35' W 075°36'0 0.0
2017-Aug-18 11:30N 39°35' W 075°36'1 2.5
2017-Aug-18 11:00N 39°35' W 075°34'3 7.0
2017-Aug-18 10:30N 39°38' W 075°34'5 9.1
2017-Aug-18 10:00N 39°42' W 075°31'2 3.1
2017-Aug-18 09:31N 39°43' W 075°32'0 0.8
2017-Aug-18 09:00N 39°43' W 075°31'1 1.7
2017-Aug-18 08:30N 39°43' W 075°30'0 0.0
2017-Aug-18 08:00N 39°43' W 075°30'0 0.0
2017-Aug-18 07:30N 39°43' W 075°30'0 0.0
2017-Aug-18 07:01N 39°43' W 075°30'0 0.0
2017-Aug-18 06:30N 39°43' W 075°30'0 0.0
2017-Aug-18 06:00N 39°43' W 075°30'0 0.0
2017-Aug-18 05:31N 39°43' W 075°30'0 0.0
2017-Aug-18 05:00N 39°43' W 075°30'0 0.0
2017-Aug-18 04:30N 39°43' W 075°30'0 0.0
2017-Aug-18 04:00N 39°43' W 075°30'0 0.1
2017-Aug-18 03:30N 39°43' W 075°30'0 0.1
2017-Aug-18 03:01N 39°43' W 075°30'0 0.1
2017-Aug-18 02:30N 39°43' W 075°30'0 0.0
2017-Aug-18 02:00N 39°43' W 075°30'0 0.0
2017-Aug-18 01:30N 39°43' W 075°30'0 0.0
2017-Aug-18 01:00N 39°43' W 075°30'0 0.0
2017-Aug-18 00:30N 39°43' W 075°30'0 0.0
2017-Aug-18 00:00N 39°43' W 075°30'0 0.0
2017-Aug-17 23:30N 39°43' W 075°30'0 0.0
2017-Aug-17 23:00N 39°43' W 075°30'0 0.0
2017-Aug-17 22:30N 39°43' W 075°30'0 0.0
2017-Aug-17 22:00N 39°43' W 075°30'0 0.0
2017-Aug-17 21:30N 39°43' W 075°30'0 0.0
2017-Aug-17 21:00N 39°43' W 075°30'1 1.6
2017-Aug-17 20:30N 39°43' W 075°31'0 0.3
2017-Aug-17 20:00N 39°43' W 075°31'0 0.2
2017-Aug-17 19:30N 39°43' W 075°31'3 5.9
2017-Aug-17 19:00N 39°45' W 075°29'611.3
2017-Aug-17 18:30N 39°49' W 075°23'3 5.8
2017-Aug-17 18:00N 39°51' W 075°20'1 2.9
2017-Aug-17 17:30N 39°51' W 075°19'5 9.3
2017-Aug-17 17:00N 39°52' W 075°13'2 3.8
2017-Aug-17 16:30N 39°53' W 075°11'0 0.0
2017-Aug-17 16:00N 39°53' W 075°11'0 0.0
2017-Aug-17 15:30N 39°53' W 075°11'0 0.0
2017-Aug-17 15:00N 39°53' W 075°11'0 0.0
2017-Aug-17 14:30N 39°53' W 075°11'0 0.0
2017-Aug-17 14:00N 39°53' W 075°11'0 0.0
2017-Aug-17 13:30N 39°53' W 075°11'0 0.0
2017-Aug-17 13:00N 39°53' W 075°11'0 0.0
2017-Aug-17 12:30N 39°53' W 075°11'0 0.0
2017-Aug-17 12:00N 39°53' W 075°11'0 0.0
2017-Aug-17 11:30N 39°53' W 075°11'5 9.0
2017-Aug-17 11:00N 39°51' W 075°16'4 7.1
2017-Aug-17 10:30N 39°51' W 075°20'1 1.4
2017-Aug-17 10:00N 39°51' W 075°21'1 1.5
2017-Aug-17 09:30N 39°51' W 075°20'0 0.0
2017-Aug-17 08:49N 39°51' W 075°20'0 0.0
2017-Aug-17 08:30N 39°51' W 075°20'0 0.0
2017-Aug-17 08:00N 39°51' W 075°20'1 2.8
2017-Aug-17 07:30N 39°51' W 075°19'611.0
2017-Aug-17 07:00N 39°53' W 075°12'4 8.5
2017-Aug-17 06:30N 39°56' W 075°08'510.4
2017-Aug-17 06:00N 39°60' W 075°04'611.1
2017-Aug-17 05:30N 40°03' W 074°58'1 0.2
2017-Aug-17 00:29N 40°04' W 074°57'510.7
2017-Aug-17 00:00N 40°01' W 075°02'611.1
2017-Aug-16 23:30N 39°58' W 075°08'2 4.8
2017-Aug-16 23:00N 39°55' W 075°08'0 0.1
2017-Aug-16 22:30N 39°55' W 075°08'2 4.1
2017-Aug-16 22:00N 39°53' W 075°08'2 3.4
2017-Aug-16 21:30N 39°53' W 075°11'0 0.0
2017-Aug-16 21:00N 39°53' W 075°11'0 0.0
2017-Aug-16 20:30N 39°53' W 075°11'0 0.0
2017-Aug-16 20:00N 39°53' W 075°11'0 0.0
2017-Aug-16 19:30N 39°53' W 075°11'0 0.0
2017-Aug-16 18:59N 39°53' W 075°11'0 0.0
2017-Aug-16 18:30N 39°53' W 075°11'0 0.0
2017-Aug-16 18:00N 39°53' W 075°11'0 0.0
2017-Aug-16 17:30N 39°53' W 075°11'0 0.0
2017-Aug-16 17:00N 39°53' W 075°11'0 0.0
2017-Aug-16 16:30N 39°53' W 075°11'0 0.0
2017-Aug-16 16:00N 39°53' W 075°11'0 0.0
2017-Aug-16 15:30N 39°53' W 075°11'0 0.0
2017-Aug-16 15:00N 39°53' W 075°11'0 0.0
2017-Aug-16 14:30N 39°53' W 075°11'0 0.0
2017-Aug-16 14:00N 39°53' W 075°11'1 1.8
2017-Aug-16 13:30N 39°53' W 075°12'1 1.5
2017-Aug-16 13:00N 39°54' W 075°11'0 0.2
2017-Aug-16 12:30N 39°53' W 075°11'0 0.2
2017-Aug-16 12:00N 39°54' W 075°11'0 0.3
2017-Aug-16 11:30N 39°54' W 075°11'0 0.7
2017-Aug-16 11:00N 39°53' W 075°12'1 1.7
2017-Aug-16 10:30N 39°53' W 075°11'510.7
2017-Aug-16 10:00N 39°51' W 075°17'611.8
2017-Aug-16 09:30N 39°49' W 075°24'1 1.5
2017-Aug-16 09:00N 39°48' W 075°25'1 1.2
2017-Aug-16 08:30N 39°48' W 075°26'0 0.0
2017-Aug-16 08:00N 39°48' W 075°26'0 0.0
2017-Aug-16 07:30N 39°48' W 075°26'0 0.0
2017-Aug-16 07:00N 39°48' W 075°26'0 0.0
2017-Aug-16 06:30N 39°48' W 075°26'0 0.0
2017-Aug-16 06:00N 39°48' W 075°26'0 0.0
2017-Aug-16 05:30N 39°48' W 075°26'0 0.0
2017-Aug-16 05:00N 39°48' W 075°26'0 0.0
2017-Aug-16 04:30N 39°48' W 075°26'0 0.0
2017-Aug-16 04:00N 39°48' W 075°26'2 3.0
2017-Aug-16 03:29N 39°49' W 075°24'511.0
2017-Aug-16 02:59N 39°51' W 075°18'5 9.9
2017-Aug-16 02:30N 39°53' W 075°12'1 2.0
2017-Aug-16 02:01N 39°54' W 075°12'1 1.8
2017-Aug-16 01:30N 39°53' W 075°12'1 1.8
2017-Aug-16 01:00N 39°53' W 075°11'0 0.0
2017-Aug-16 00:30N 39°53' W 075°11'0 0.0
2017-Aug-16 00:01N 39°53' W 075°11'0 0.0
2017-Aug-15 23:30N 39°53' W 075°11'0 0.0
2017-Aug-15 23:00N 39°53' W 075°11'0 0.0
2017-Aug-15 22:30N 39°53' W 075°11'0 0.0
2017-Aug-15 22:01N 39°53' W 075°11'0 0.0
2017-Aug-15 21:30N 39°53' W 075°11'0 0.0
2017-Aug-15 21:00N 39°53' W 075°11'0 0.0
2017-Aug-15 20:29N 39°53' W 075°11'0 0.0
2017-Aug-15 19:59N 39°53' W 075°11'0 0.0
2017-Aug-15 19:28N 39°53' W 075°11'0 0.0
2017-Aug-15 19:00N 39°53' W 075°11'0 0.0
2017-Aug-15 18:30N 39°53' W 075°11'0 0.0
2017-Aug-15 18:00N 39°53' W 075°11'0 0.0
2017-Aug-15 17:30N 39°53' W 075°11'0 0.0
2017-Aug-15 17:00N 39°53' W 075°11'0 0.0
2017-Aug-15 16:30N 39°53' W 075°11'0 0.0
2017-Aug-15 15:58N 39°53' W 075°11'0 0.0
2017-Aug-15 15:30N 39°53' W 075°11'0 0.0
2017-Aug-15 14:58N 39°53' W 075°11'0 0.0
2017-Aug-15 14:30N 39°53' W 075°11'0 0.0
2017-Aug-15 14:00N 39°53' W 075°11'0 0.0
2017-Aug-15 13:30N 39°53' W 075°11'0 0.0
2017-Aug-15 13:00N 39°53' W 075°11'0 0.0
2017-Aug-15 12:30N 39°53' W 075°11'0 0.0
2017-Aug-15 12:00N 39°53' W 075°11'0 0.0
2017-Aug-15 11:30N 39°53' W 075°11'0 0.4
2017-Aug-15 11:01N 39°53' W 075°11'510.3
2017-Aug-15 10:30N 39°51' W 075°17'3 5.4
2017-Aug-15 10:00N 39°51' W 075°20'0 0.0
2017-Aug-15 09:30N 39°51' W 075°20'0 0.0
2017-Aug-15 09:00N 39°51' W 075°20'0 0.0
2017-Aug-15 08:30N 39°51' W 075°20'0 0.1
2017-Aug-15 08:00N 39°51' W 075°20'3 6.6
2017-Aug-15 07:31N 39°51' W 075°16'5 9.4
2017-Aug-15 07:00N 39°53' W 075°11'0 0.0
2017-Aug-15 06:30N 39°53' W 075°11'0 0.0
2017-Aug-15 05:57N 39°53' W 075°11'0 0.0
2017-Aug-15 05:30N 39°53' W 075°11'0 0.0
2017-Aug-15 04:59N 39°53' W 075°11'0 0.0
2017-Aug-15 04:30N 39°53' W 075°11'0 0.0
2017-Aug-15 03:57N 39°53' W 075°11'0 0.0
2017-Aug-15 03:30N 39°53' W 075°11'0 0.0
2017-Aug-15 03:00N 39°53' W 075°11'0 0.0
2017-Aug-15 02:30N 39°53' W 075°11'0 0.0
2017-Aug-15 02:00N 39°53' W 075°11'0 0.0
2017-Aug-15 01:30N 39°53' W 075°11'0 0.0
2017-Aug-15 01:00N 39°53' W 075°11'0 0.0
2017-Aug-15 00:31N 39°53' W 075°11'0 0.0
2017-Aug-15 00:00N 39°53' W 075°11'0 0.0
2017-Aug-14 23:30N 39°53' W 075°11'0 0.0
2017-Aug-14 23:00N 39°53' W 075°11'0 0.0
2017-Aug-14 22:30N 39°53' W 075°11'3 5.9
2017-Aug-14 22:00N 39°51' W 075°14'510.2
2017-Aug-14 21:30N 39°51' W 075°20'0 0.3
2017-Aug-14 20:58N 39°51' W 075°20'3 5.4
2017-Aug-14 20:30N 39°49' W 075°23'2 4.8
2017-Aug-14 20:00N 39°51' W 075°21'4 7.9
2017-Aug-14 19:30N 39°51' W 075°15'4 8.3
2017-Aug-14 19:00N 39°53' W 075°11'0 0.1
2017-Aug-14 18:30N 39°53' W 075°11'0 0.0
2017-Aug-14 17:58N 39°53' W 075°11'0 0.0
2017-Aug-14 17:30N 39°53' W 075°11'0 0.0
2017-Aug-14 16:55N 39°53' W 075°11'0 0.0
2017-Aug-14 16:26N 39°53' W 075°11'0 0.0
2017-Aug-14 16:00N 39°53' W 075°11'0 0.0
2017-Aug-14 15:30N 39°53' W 075°11'0 0.0
2017-Aug-14 15:00N 39°53' W 075°11'0 0.0
2017-Aug-14 14:30N 39°53' W 075°11'1 1.7
2017-Aug-14 14:00N 39°54' W 075°12'1 1.3
2017-Aug-14 13:30N 39°54' W 075°12'0 0.2
2017-Aug-14 12:57N 39°54' W 075°12'0 1.1
2017-Aug-14 12:31N 39°53' W 075°12'0 0.1
2017-Aug-14 12:00N 39°53' W 075°12'1 1.5
2017-Aug-14 11:30N 39°53' W 075°12'1 2.3
2017-Aug-14 11:00N 39°53' W 075°11'0 0.0
2017-Aug-14 10:30N 39°53' W 075°11'0 0.0
2017-Aug-14 10:01N 39°53' W 075°11'0 0.0
2017-Aug-14 09:30N 39°53' W 075°11'0 0.0
2017-Aug-14 09:00N 39°53' W 075°11'0 0.0
2017-Aug-14 08:31N 39°53' W 075°11'0 0.0
2017-Aug-14 08:00N 39°53' W 075°11'2 3.9
2017-Aug-14 07:30N 39°54' W 075°08'0 0.3
2017-Aug-14 07:00N 39°54' W 075°08'2 4.3
2017-Aug-14 06:30N 39°53' W 075°11'0 0.5
2017-Aug-14 06:00N 39°53' W 075°11'0 0.0
2017-Aug-14 05:30N 39°53' W 075°11'0 0.0
2017-Aug-14 05:00N 39°53' W 075°11'0 0.0
2017-Aug-14 04:27N 39°53' W 075°11'0 0.0
2017-Aug-14 04:00N 39°53' W 075°11'0 0.0
2017-Aug-14 03:28N 39°53' W 075°11'0 0.0
2017-Aug-14 03:00N 39°53' W 075°11'0 0.0
2017-Aug-14 02:29N 39°53' W 075°11'0 0.0
2017-Aug-14 02:00N 39°53' W 075°11'0 0.0
2017-Aug-14 01:30N 39°53' W 075°11'0 0.0
2017-Aug-14 01:00N 39°53' W 075°11'0 0.0
2017-Aug-14 00:30N 39°53' W 075°11'0 0.0
2017-Aug-14 00:00N 39°53' W 075°11'0 0.0
2017-Aug-13 23:30N 39°53' W 075°11'0 0.0
2017-Aug-13 23:00N 39°53' W 075°11'0 0.0
2017-Aug-13 22:30N 39°53' W 075°11'0 0.0
2017-Aug-13 22:00N 39°53' W 075°11'0 0.0
2017-Aug-13 21:30N 39°53' W 075°11'0 0.0
2017-Aug-13 21:00N 39°53' W 075°11'0 0.0
2017-Aug-13 20:30N 39°53' W 075°11'0 0.0
2017-Aug-13 20:00N 39°53' W 075°11'0 0.0
2017-Aug-13 19:30N 39°53' W 075°11'0 0.0
2017-Aug-13 19:00N 39°53' W 075°11'0 0.0
2017-Aug-13 18:30N 39°53' W 075°11'0 0.0
2017-Aug-13 18:00N 39°53' W 075°11'0 0.0
2017-Aug-13 17:29N 39°53' W 075°11'0 0.0
2017-Aug-13 17:00N 39°53' W 075°11'0 0.0
2017-Aug-13 16:30N 39°53' W 075°11'0 0.0
2017-Aug-13 16:00N 39°53' W 075°11'0 0.0
2017-Aug-13 15:30N 39°53' W 075°11'0 0.0
2017-Aug-13 15:00N 39°53' W 075°11'0 0.0
2017-Aug-13 14:30N 39°53' W 075°11'0 0.0
2017-Aug-13 13:59N 39°53' W 075°11'0 0.0
2017-Aug-13 13:30N 39°53' W 075°11'0 0.0
2017-Aug-13 13:00N 39°53' W 075°11'0 0.0
2017-Aug-13 12:30N 39°53' W 075°11'0 0.0
2017-Aug-13 12:00N 39°53' W 075°11'0 0.0
2017-Aug-13 11:30N 39°53' W 075°11'0 0.0
2017-Aug-13 11:00N 39°53' W 075°11'0 0.0
2017-Aug-13 10:30N 39°53' W 075°11'1 2.6
2017-Aug-13 10:00N 39°53' W 075°12'611.3
2017-Aug-13 09:29N 39°51' W 075°19'611.6
2017-Aug-13 09:00N 39°48' W 075°26'713.8
2017-Aug-13 08:30N 39°42' W 075°31'611.9
2017-Aug-13 08:00N 39°37' W 075°35'713.7
2017-Aug-13 07:31N 39°30' W 075°33'713.2
2017-Aug-13 07:00N 39°24' W 075°30'714.7
2017-Aug-13 06:30N 39°19' W 075°24'714.6
2017-Aug-13 06:00N 39°13' W 075°18'6 2.3
2017-Aug-13 03:16N 39°08' W 075°13'2 8.3
2017-Aug-13 03:00N 39°09' W 075°15'4 8.6
2017-Aug-13 02:30N 39°13' W 075°18'5 9.5
2017-Aug-13 02:01N 39°17' W 075°22'510.2
2017-Aug-13 01:30N 39°21' W 075°26'510.8
2017-Aug-13 01:01N 39°25' W 075°31'510.2
2017-Aug-13 00:31N 39°29' W 075°34'511.0
2017-Aug-13 00:01N 39°35' W 075°33'5 9.7
2017-Aug-12 23:30N 39°39' W 075°33'510.7
2017-Aug-12 23:00N 39°44' W 075°30'5 9.8
2017-Aug-12 22:30N 39°48' W 075°25'6 8.9
2017-Aug-12 21:46N 39°51' W 075°18'2 8.4
2017-Aug-12 21:30N 39°51' W 075°15'4 8.1
2017-Aug-12 21:00N 39°53' W 075°10'3 6.1
2017-Aug-12 20:30N 39°55' W 075°08'3 6.2
2017-Aug-12 20:00N 39°58' W 075°07'0 0.4
2017-Aug-12 19:30N 39°58' W 075°07'0 0.1
2017-Aug-12 19:00N 39°58' W 075°07'0 0.0
2017-Aug-12 18:30N 39°58' W 075°07'0 0.0
2017-Aug-12 18:00N 39°58' W 075°07'0 0.0
2017-Aug-12 17:30N 39°58' W 075°07'1 1.2
2017-Aug-12 17:00N 39°58' W 075°07'4 7.1
2017-Aug-12 16:30N 39°54' W 075°08'3 7.0
2017-Aug-12 16:01N 39°53' W 075°12'3 5.9
2017-Aug-12 15:30N 39°51' W 075°15'1 0.6
2017-Aug-12 14:03N 39°52' W 075°14'0 0.2
2017-Aug-12 13:58N 39°52' W 075°14'4 8.1
2017-Aug-12 13:27N 39°51' W 075°19'4 8.6
2017-Aug-12 13:00N 39°49' W 075°24'1 1.1
2017-Aug-12 12:30N 39°49' W 075°24'0 0.0
2017-Aug-12 12:00N 39°49' W 075°24'0 0.0
2017-Aug-12 11:30N 39°49' W 075°24'0 0.1
2017-Aug-12 11:00N 39°49' W 075°24'0 0.0
2017-Aug-12 10:30N 39°49' W 075°24'0 0.0
2017-Aug-12 10:00N 39°49' W 075°24'2 3.3
2017-Aug-12 09:30N 39°50' W 075°23'2 4.5
2017-Aug-12 09:00N 39°51' W 075°20'0 0.0
2017-Aug-12 08:22N 39°51' W 075°20'2 4.1
2017-Aug-12 08:00N 39°51' W 075°18'4 7.4
2017-Aug-12 07:30N 39°52' W 075°14'3 6.8
2017-Aug-12 07:00N 39°53' W 075°10'2 3.2
2017-Aug-12 06:30N 39°54' W 075°08'0 0.5
2017-Aug-12 06:00N 39°54' W 075°08'0 0.9
2017-Aug-12 05:30N 39°54' W 075°08'2 3.9
2017-Aug-12 05:00N 39°53' W 075°11'0 0.0
2017-Aug-12 04:30N 39°53' W 075°11'0 0.0
2017-Aug-12 04:00N 39°53' W 075°11'0 0.0
2017-Aug-12 03:30N 39°53' W 075°11'0 0.0
2017-Aug-12 03:00N 39°53' W 075°11'0 0.0
2017-Aug-12 02:30N 39°53' W 075°11'0 0.0
2017-Aug-12 02:00N 39°53' W 075°11'0 0.0
2017-Aug-12 01:30N 39°53' W 075°11'0 0.0
2017-Aug-12 01:00N 39°53' W 075°11'0 0.0
2017-Aug-12 00:30N 39°53' W 075°11'0 0.0
2017-Aug-12 00:00N 39°53' W 075°11'0 0.0
2017-Aug-11 23:30N 39°53' W 075°11'0 0.0
2017-Aug-11 23:00N 39°53' W 075°11'0 0.1
2017-Aug-11 22:30N 39°53' W 075°11'3 5.7
2017-Aug-11 22:00N 39°55' W 075°08'0 0.1
2017-Aug-11 21:30N 39°55' W 075°08'3 6.1
2017-Aug-11 21:00N 39°58' W 075°07'0 0.1
2017-Aug-11 20:30N 39°58' W 075°07'1 1.5
2017-Aug-11 20:01N 39°58' W 075°07'4 7.3
2017-Aug-11 19:30N 39°54' W 075°08'5 9.6
2017-Aug-11 19:00N 39°52' W 075°13'610.9
2017-Aug-11 18:27N 39°51' W 075°21'511.3
2017-Aug-11 18:00N 39°48' W 075°26'611.0
2017-Aug-11 17:30N 39°43' W 075°30'611.2
2017-Aug-11 17:00N 39°38' W 075°34'510.4
2017-Aug-11 16:30N 39°33' W 075°32'611.2
2017-Aug-11 16:00N 39°28' W 075°34'610.9
2017-Aug-11 15:30N 39°23' W 075°29'16 4.8
2017-Aug-11 12:10N 39°11' W 075°16'213.5
2017-Aug-11 12:00N 39°13' W 075°18'714.8
2017-Aug-11 11:30N 39°19' W 075°23'815.5
2017-Aug-11 11:01N 39°24' W 075°30'714.0
2017-Aug-11 10:31N 39°31' W 075°33'714.3
2017-Aug-11 10:01N 39°38' W 075°34'  

Dump ship's entire track history